Terminal Aerodrome Forecast
Issued by NWS Cleveland, OH

Home | Current Version | Previous Version | Text Only | Print | Product List | Glossary Off
Versions: 1 2 3 4 5 6 7 8 9 10 11 12 13 14 15 16 17 18 19

000
FTUS41 KCLE 201120
TAFMFD
TAF
KMFD 201120Z 2012/2112 30004KT P6SM OVC006
     FM201600 01005KT P6SM OVC012
      TEMPO 2016/2017 BKN006
     FM201900 02006KT P6SM BKN025
     FM202200 04006KT P6SM BKN035=

USA.gov is the U.S. government's official web portal to all federal, state and local government web resources and services.